Time;durP1;ratioP1;P1;durP2;ratioP2;P2;SDS_P1;SDS_P2;PMS_P1;PMS_P2;Temp;Humidity;BMP_temperature;BMP_pressure;BME280_temperature;BME280_humidity;BME280_pressure;Samples;Min_cycle;Max_cycle;Signal;HPM_P1;HPM_P2
2022/02/28 00:00:19;;;;;;;18.73;9.55;;;0.00;49.50;;;;;;5031035;28;20191;-67
2022/02/28 00:02:47;;;;;;;16.45;8.48;;;-0.10;49.70;;;;;;5028516;28;20191;-67
2022/02/28 00:05:16;;;;;;;11.40;8.02;;;-0.20;50.20;;;;;;5031163;28;20210;-68
2022/02/28 00:07:43;;;;;;;16.55;7.32;;;-0.20;50.60;;;;;;5030276;28;20187;-67
2022/02/28 00:10:11;;;;;;;13.05;7.72;;;-0.20;50.60;;;;;;5030453;28;20191;-67
2022/02/28 00:12:38;;;;;;;18.73;9.45;;;-0.30;50.50;;;;;;5030311;28;20550;-67
2022/02/28 00:15:07;;;;;;;18.05;11.60;;;-0.30;51.10;;;;;;5029672;28;20315;-67
2022/02/28 00:17:34;;;;;;;16.70;10.13;;;-0.30;51.90;;;;;;5030458;28;20191;-68
2022/02/28 00:20:01;;;;;;;15.77;7.90;;;-0.30;52.10;;;;;;5024273;28;20270;-67
2022/02/28 00:22:29;;;;;;;14.70;9.18;;;-0.20;52.60;;;;;;5023773;28;20195;-67
2022/02/28 00:24:56;;;;;;;18.10;9.75;;;-0.30;52.90;;;;;;5029035;28;20288;-67
2022/02/28 00:27:24;;;;;;;15.90;9.57;;;-0.30;53.00;;;;;;5030135;28;20226;-67
2022/02/28 00:29:52;;;;;;;13.27;10.10;;;-0.30;53.20;;;;;;5029805;28;20638;-67
2022/02/28 00:32:20;;;;;;;16.60;9.50;;;-0.30;53.60;;;;;;5030416;28;21053;-68
2022/02/28 00:34:47;;;;;;;14.05;8.50;;;-0.20;52.90;;;;;;5029625;28;20191;-68
2022/02/28 00:37:14;;;;;;;14.52;9.77;;;-0.30;52.10;;;;;;5029802;28;20195;-67
2022/02/28 00:39:43;;;;;;;14.85;8.70;;;-0.30;52.20;;;;;;5026568;28;20271;-67
2022/02/28 00:42:10;;;;;;;14.07;8.23;;;-0.30;52.50;;;;;;5030094;28;20277;-67
2022/02/28 00:44:37;;;;;;;13.57;9.80;;;-0.30;52.50;;;;;;5028858;28;20223;-68
2022/02/28 00:47:05;;;;;;;17.10;9.10;;;-0.30;52.50;;;;;;5029768;28;20199;-67
2022/02/28 00:49:33;;;;;;;14.55;9.75;;;-0.30;51.90;;;;;;5030294;28;20244;-67
2022/02/28 00:52:00;;;;;;;10.90;7.72;;;-0.40;51.60;;;;;;5031496;28;20265;-67
2022/02/28 00:54:28;;;;;;;12.00;7.75;;;-0.50;52.20;;;;;;5024949;28;20198;-67
2022/02/28 00:56:57;;;;;;;11.95;8.25;;;-0.50;53.20;;;;;;5011592;28;20278;-67
2022/02/28 00:59:25;;;;;;;13.07;7.85;;;-0.50;53.30;;;;;;5030552;28;20187;-67
2022/02/28 01:01:52;;;;;;;12.65;7.97;;;-0.50;53.40;;;;;;5031074;28;20596;-69
2022/02/28 01:04:19;;;;;;;12.98;8.32;;;-0.50;53.60;;;;;;5012815;28;20286;-67
2022/02/28 01:06:47;;;;;;;13.45;9.27;;;-0.50;53.20;;;;;;5010510;28;20614;-67
2022/02/28 01:09:14;;;;;;;16.15;8.65;;;-0.50;52.80;;;;;;5027850;28;20189;-69
2022/02/28 01:11:42;;;;;;;13.77;8.45;;;-0.60;52.70;;;;;;5031101;28;20193;-67
2022/02/28 01:14:11;;;;;;;13.43;8.15;;;-0.60;52.40;;;;;;5014795;28;20714;-68
2022/02/28 01:16:38;;;;;;;15.55;8.13;;;-0.60;52.70;;;;;;5018864;28;20191;-67
2022/02/28 01:19:05;;;;;;;21.05;9.43;;;-0.70;52.50;;;;;;5031270;28;20194;-67
2022/02/28 01:21:32;;;;;;;13.85;8.85;;;-0.70;53.10;;;;;;5023930;28;20192;-67
2022/02/28 01:23:59;;;;;;;13.85;7.75;;;-0.70;53.40;;;;;;5017308;28;20214;-67
2022/02/28 01:26:26;;;;;;;12.45;7.18;;;-0.80;53.40;;;;;;5028579;28;20199;-67
2022/02/28 01:28:53;;;;;;;12.73;7.97;;;-0.80;53.50;;;;;;5025989;28;20705;-67
2022/02/28 01:31:22;;;;;;;12.18;7.65;;;-0.80;53.50;;;;;;5010837;28;20192;-68
2022/02/28 01:33:49;;;;;;;17.67;8.02;;;-0.80;53.40;;;;;;5013707;28;20545;-68
2022/02/28 01:36:16;;;;;;;12.77;7.65;;;-0.90;53.20;;;;;;5030538;28;20199;-68
2022/02/28 01:38:43;;;;;;;14.20;8.48;;;-0.90;53.30;;;;;;5028498;28;20260;-67
2022/02/28 01:41:10;;;;;;;18.85;9.45;;;-0.90;53.80;;;;;;5011005;28;20188;-67
2022/02/28 01:43:37;;;;;;;11.05;7.22;;;-1.00;53.50;;;;;;5010422;28;20266;-67
2022/02/28 01:46:04;;;;;;;11.75;7.82;;;-1.00;53.10;;;;;;5030164;28;20202;-67
2022/02/28 01:48:33;;;;;;;16.70;9.45;;;-1.10;53.30;;;;;;5030361;28;20194;-67
2022/02/28 01:51:00;;;;;;;14.20;8.20;;;-1.10;53.50;;;;;;5011063;28;20658;-67
2022/02/28 01:53:27;;;;;;;13.10;7.90;;;-1.10;53.90;;;;;;5027639;28;20195;-67
2022/02/28 01:55:54;;;;;;;13.10;8.60;;;-1.20;54.00;;;;;;5030013;28;20191;-67
2022/02/28 01:58:23;;;;;;;10.52;6.88;;;-1.20;53.80;;;;;;5013840;28;20287;-67
2022/02/28 02:00:50;;;;;;;12.77;7.10;;;-1.30;54.20;;;;;;5019971;28;20198;-67
2022/02/28 02:03:17;;;;;;;10.40;6.15;;;-1.50;54.90;;;;;;5030196;28;20195;-67
2022/02/28 02:05:46;;;;;;;12.68;7.80;;;-1.60;55.10;;;;;;5010417;28;20194;-67
2022/02/28 02:08:13;;;;;;;14.25;7.28;;;-1.60;54.80;;;;;;5010438;28;20195;-68
2022/02/28 02:10:41;;;;;;;12.10;8.10;;;-1.60;54.80;;;;;;5028084;28;20650;-67
2022/02/28 02:13:10;;;;;;;15.68;7.63;;;-1.60;54.60;;;;;;5029866;28;20223;-67
2022/02/28 02:15:37;;;;;;;8.73;6.07;;;-1.50;54.80;;;;;;5012321;28;20240;-67
2022/02/28 02:18:05;;;;;;;10.98;7.22;;;-1.60;55.60;;;;;;5009711;28;20187;-67
2022/02/28 02:20:36;;;;;;;12.10;7.07;;;-1.50;55.40;;;;;;5025622;28;20270;-67
2022/02/28 02:23:05;;;;;;;15.48;8.85;;;-1.50;55.90;;;;;;5029797;28;20198;-67
2022/02/28 02:25:33;;;;;;;13.25;7.97;;;-1.60;54.60;;;;;;5013908;28;20656;-67
2022/02/28 02:28:00;;;;;;;14.85;7.93;;;-1.60;54.60;;;;;;5009943;28;20195;-67
2022/02/28 02:30:27;;;;;;;12.63;7.60;;;-1.60;55.40;;;;;;5024222;28;20597;-67
2022/02/28 02:32:55;;;;;;;12.30;8.48;;;-1.60;56.10;;;;;;5029890;28;20657;-67
2022/02/28 02:35:22;;;;;;;11.25;7.70;;;-1.60;56.40;;;;;;5016392;28;20266;-67
2022/02/28 02:37:51;;;;;;;17.73;9.57;;;-1.60;57.20;;;;;;5009918;28;20188;-67
2022/02/28 02:40:18;;;;;;;15.05;7.93;;;-1.70;57.70;;;;;;5021418;28;20190;-67
2022/02/28 02:42:46;;;;;;;14.43;8.80;;;-1.70;58.20;;;;;;5023332;28;20634;-67
2022/02/28 02:45:13;;;;;;;13.98;9.05;;;-1.60;58.00;;;;;;5010466;28;20219;-67
2022/02/28 02:47:40;;;;;;;16.05;9.20;;;-1.60;57.20;;;;;;5009648;28;20200;-67
2022/02/28 02:50:08;;;;;;;11.50;7.50;;;-1.60;57.30;;;;;;5009748;28;20203;-67
2022/02/28 02:52:35;;;;;;;13.57;8.32;;;-1.60;57.50;;;;;;5029362;28;20187;-67
2022/02/28 02:55:05;;;;;;;17.35;10.80;;;-1.70;57.00;;;;;;5022192;28;20540;-67
2022/02/28 02:57:32;;;;;;;18.30;9.85;;;-1.70;57.10;;;;;;5009691;28;20250;-67
2022/02/28 03:00:03;;;;;;;15.07;8.77;;;-1.70;57.30;;;;;;5024368;28;20191;-67
2022/02/28 03:02:32;;;;;;;16.52;8.38;;;-1.60;57.40;;;;;;5029472;28;20202;-68
2022/02/28 03:04:59;;;;;;;11.43;8.30;;;-1.60;57.10;;;;;;5013933;28;20705;-67
2022/02/28 03:07:26;;;;;;;13.00;7.53;;;-1.70;56.80;;;;;;5009765;28;20561;-67
2022/02/28 03:09:54;;;;;;;13.02;7.35;;;-1.70;56.50;;;;;;5022540;28;20195;-67
2022/02/28 03:12:23;;;;;;;14.13;8.10;;;-1.70;56.50;;;;;;5029430;28;20199;-69
2022/02/28 03:14:50;;;;;;;14.60;7.78;;;-1.80;55.90;;;;;;5027252;28;20221;-67
2022/02/28 03:17:17;;;;;;;13.13;7.88;;;-1.80;55.60;;;;;;5028892;28;20191;-67
2022/02/28 03:19:44;;;;;;;10.20;6.63;;;-1.90;55.50;;;;;;5015570;28;20195;-67
2022/02/28 03:22:11;;;;;;;13.02;7.45;;;-2.10;55.60;;;;;;5009407;28;20227;-67
2022/02/28 03:24:38;;;;;;;13.85;7.63;;;-2.10;55.60;;;;;;5020266;28;20215;-67
2022/02/28 03:27:06;;;;;;;14.07;8.45;;;-2.20;55.20;;;;;;5028711;28;20283;-67
2022/02/28 03:29:34;;;;;;;13.20;7.40;;;-2.20;55.50;;;;;;5018168;28;20196;-68
2022/02/28 03:32:01;;;;;;;15.35;8.00;;;-2.30;56.00;;;;;;5012088;28;20655;-66
2022/02/28 03:34:29;;;;;;;18.70;8.95;;;-2.30;56.50;;;;;;5021712;28;20669;-67
2022/02/28 03:36:56;;;;;;;16.80;10.00;;;-2.30;56.90;;;;;;5030628;28;20238;-67
2022/02/28 03:39:24;;;;;;;14.40;8.27;;;-2.30;57.40;;;;;;5012300;28;20199;-67
2022/02/28 03:41:53;;;;;;;11.02;7.15;;;-2.30;57.30;;;;;;5018188;28;20229;-67
2022/02/28 03:44:20;;;;;;;11.32;7.40;;;-2.30;57.50;;;;;;5031988;28;20222;-68
2022/02/28 03:46:48;;;;;;;13.35;9.32;;;-2.30;58.10;;;;;;5026550;28;20524;-67
2022/02/28 03:49:16;;;;;;;13.70;8.52;;;-2.30;58.60;;;;;;5013339;28;20414;-67
2022/02/28 03:51:43;;;;;;;13.07;9.23;;;-2.30;58.80;;;;;;5026284;28;20235;-67
2022/02/28 03:54:11;;;;;;;14.93;9.52;;;-2.30;58.80;;;;;;5012077;28;20195;-67
2022/02/28 03:56:38;;;;;;;11.85;7.72;;;-2.30;59.20;;;;;;5014473;28;20207;-67
2022/02/28 03:59:06;;;;;;;13.48;9.65;;;-2.20;59.60;;;;;;5031861;28;20278;-67
2022/02/28 04:01:33;;;;;;;13.35;7.90;;;-2.20;59.50;;;;;;5029981;28;20257;-67
2022/02/28 04:04:03;;;;;;;13.30;9.02;;;-2.20;59.20;;;;;;5012563;28;20191;-67
2022/02/28 04:06:32;;;;;;;15.93;8.68;;;-2.20;59.40;;;;;;5012086;28;20556;-67
2022/02/28 04:09:00;;;;;;;12.32;8.30;;;-2.20;59.50;;;;;;5012807;28;20199;-66
2022/02/28 04:11:28;;;;;;;13.23;8.70;;;-2.20;59.40;;;;;;5027026;28;20238;-67
2022/02/28 04:13:55;;;;;;;12.85;8.90;;;-2.30;59.40;;;;;;5031911;28;20219;-67
2022/02/28 04:16:22;;;;;;;15.02;8.60;;;-2.20;59.50;;;;;;5017309;28;20564;-67
2022/02/28 04:18:49;;;;;;;11.98;7.50;;;-2.20;59.40;;;;;;5011885;28;20196;-67
2022/02/28 04:21:18;;;;;;;14.70;7.60;;;-2.30;59.50;;;;;;5024047;28;20727;-67
2022/02/28 04:23:46;;;;;;;15.48;9.43;;;-2.40;58.90;;;;;;5031775;28;20192;-68
2022/02/28 04:26:13;;;;;;;17.23;10.38;;;-2.40;59.40;;;;;;5023373;28;20555;-67
2022/02/28 04:28:40;;;;;;;21.92;10.95;;;-2.30;59.50;;;;;;5027004;28;20293;-68
2022/02/28 04:31:07;;;;;;;25.02;10.80;;;-2.40;59.00;;;;;;5031880;28;20375;-67
2022/02/28 04:33:34;;;;;;;27.20;11.52;;;-2.50;59.10;;;;;;5031288;28;20192;-67
2022/02/28 04:36:01;;;;;;;27.23;13.88;;;-2.50;59.30;;;;;;5031815;28;20278;-67
2022/02/28 04:38:30;;;;;;;20.00;10.80;;;-2.50;59.50;;;;;;5024007;28;20651;-67
2022/02/28 04:40:57;;;;;;;16.23;10.30;;;-2.50;59.80;;;;;;5011694;28;20198;-67
2022/02/28 04:43:24;;;;;;;20.60;10.18;;;-2.50;60.60;;;;;;5018039;28;20543;-67
2022/02/28 04:45:51;;;;;;;16.08;8.77;;;-2.50;61.10;;;;;;5031493;28;20213;-71
2022/02/28 04:48:18;;;;;;;12.23;7.90;;;-2.50;61.30;;;;;;5020334;28;20191;-67
2022/02/28 04:50:45;;;;;;;19.40;10.10;;;-2.50;61.00;;;;;;5011694;28;20198;-67
2022/02/28 04:53:12;;;;;;;18.77;10.43;;;-2.50;61.40;;;;;;5021025;28;20210;-67
2022/02/28 04:55:40;;;;;;;16.65;9.10;;;-2.60;61.00;;;;;;5030968;28;20223;-68
2022/02/28 04:58:07;;;;;;;15.18;9.25;;;-2.60;61.40;;;;;;5022849;28;20188;-67
2022/02/28 05:00:34;;;;;;;15.07;9.38;;;-2.50;61.30;;;;;;5011215;28;20200;-68
2022/02/28 05:03:01;;;;;;;14.90;8.05;;;-2.50;61.20;;;;;;5031122;28;20218;-67
2022/02/28 05:05:28;;;;;;;11.93;7.32;;;-2.50;61.00;;;;;;5031049;28;20197;-67
2022/02/28 05:07:55;;;;;;;12.77;8.30;;;-2.40;60.70;;;;;;5012060;28;20650;-67
2022/02/28 05:10:23;;;;;;;13.57;10.35;;;-2.50;60.90;;;;;;5011367;28;20677;-67
2022/02/28 05:12:51;;;;;;;23.17;11.77;;;-2.50;61.20;;;;;;5028281;28;20203;-68
2022/02/28 05:15:18;;;;;;;16.35;9.18;;;-2.60;61.30;;;;;;5031102;28;20207;-67
2022/02/28 05:17:45;;;;;;;18.83;10.95;;;-2.60;61.20;;;;;;5014502;28;20188;-67
2022/02/28 05:20:20;;;;;;;15.13;9.82;;;-2.60;61.30;;;;;;5011311;28;20214;-67
2022/02/28 05:22:47;;;;;;;18.80;9.88;;;-2.60;61.00;;;;;;5026211;28;20187;-67
2022/02/28 05:25:14;;;;;;;21.92;9.88;;;-2.60;60.90;;;;;;5030855;28;20250;-67
2022/02/28 05:27:44;;;;;;;25.15;10.80;;;-2.50;60.90;;;;;;5029071;28;20195;-67
2022/02/28 05:30:14;;;;;;;21.77;11.32;;;-2.50;60.90;;;;;;5031176;28;20276;-67
2022/02/28 05:32:42;;;;;;;19.55;11.88;;;-2.50;60.50;;;;;;5013304;28;20643;-67
2022/02/28 05:35:10;;;;;;;22.58;12.07;;;-2.50;60.50;;;;;;5012191;28;20269;-67
2022/02/28 05:37:37;;;;;;;15.60;10.05;;;-2.50;60.40;;;;;;5027464;28;20183;-67
2022/02/28 05:40:07;;;;;;;15.57;9.50;;;-2.60;60.10;;;;;;5031916;28;20195;-67
2022/02/28 05:42:35;;;;;;;20.27;12.10;;;-2.60;60.50;;;;;;5015453;28;20586;-67
2022/02/28 05:45:02;;;;;;;13.80;10.23;;;-2.70;59.90;;;;;;5010749;28;20200;-67
2022/02/28 05:47:30;;;;;;;18.58;9.90;;;-2.70;60.60;;;;;;5024388;28;20638;-67
2022/02/28 05:49:57;;;;;;;22.38;11.13;;;-2.60;60.80;;;;;;5018159;28;20192;-67
2022/02/28 05:52:24;;;;;;;14.95;9.60;;;-2.60;60.70;;;;;;5011067;28;20721;-67
2022/02/28 05:54:52;;;;;;;15.30;9.73;;;-2.60;60.40;;;;;;5012484;28;20527;-69
2022/02/28 05:57:19;;;;;;;17.27;9.35;;;-2.60;60.10;;;;;;5010817;28;20286;-67
2022/02/28 05:59:46;;;;;;;15.77;9.40;;;-2.60;59.90;;;;;;5023954;28;20195;-67
2022/02/28 06:02:13;;;;;;;16.65;11.00;;;-2.60;60.00;;;;;;5030127;28;20274;-67
2022/02/28 06:04:42;;;;;;;14.73;9.68;;;-2.60;59.50;;;;;;5028033;28;20190;-67
2022/02/28 06:07:09;;;;;;;14.90;8.70;;;-2.70;59.00;;;;;;5030144;28;20206;-67
2022/02/28 06:09:39;;;;;;;17.77;10.10;;;-2.70;58.60;;;;;;5018733;28;20341;-67
2022/02/28 06:12:07;;;;;;;16.00;9.05;;;-2.80;58.50;;;;;;5009725;28;20199;-67
2022/02/28 06:14:35;;;;;;;11.32;7.60;;;-2.90;58.30;;;;;;5010148;28;20224;-68
2022/02/28 06:17:02;;;;;;;11.50;8.80;;;-3.00;58.30;;;;;;5008935;28;20211;-67
2022/02/28 06:19:29;;;;;;;19.58;9.38;;;-3.00;58.60;;;;;;5016258;28;20270;-67
2022/02/28 06:21:58;;;;;;;21.05;10.60;;;-2.90;59.20;;;;;;5026421;28;20187;-67
2022/02/28 06:24:25;;;;;;;17.38;10.38;;;-2.90;59.60;;;;;;5021992;28;20260;-67
2022/02/28 06:26:52;;;;;;;17.30;10.10;;;-2.80;59.90;;;;;;5026998;28;20195;-67
2022/02/28 06:29:20;;;;;;;14.50;9.43;;;-2.70;60.20;;;;;;5026689;28;20592;-67
2022/02/28 06:31:47;;;;;;;14.32;8.77;;;-2.60;60.10;;;;;;5024960;28;20202;-69
2022/02/28 06:34:14;;;;;;;14.25;9.90;;;-2.60;59.60;;;;;;5020194;28;20262;-67
2022/02/28 06:36:42;;;;;;;19.05;10.52;;;-2.50;60.40;;;;;;5024555;28;20714;-67
2022/02/28 06:39:11;;;;;;;14.85;9.88;;;-2.40;60.60;;;;;;5026883;28;20183;-68
2022/02/28 06:41:38;;;;;;;14.00;7.75;;;-2.20;60.70;;;;;;5027088;28;20608;-69
2022/02/28 06:44:06;;;;;;;11.65;7.95;;;-2.10;59.80;;;;;;5020222;28;20190;-67
2022/02/28 06:46:34;;;;;;;16.23;8.10;;;-2.00;59.00;;;;;;5024556;28;20669;-67
2022/02/28 06:49:01;;;;;;;14.15;8.90;;;-1.80;58.90;;;;;;5023455;28;20234;-68
2022/02/28 06:51:28;;;;;;;13.60;9.02;;;-1.50;59.00;;;;;;5024478;28;20186;-68
2022/02/28 06:53:55;;;;;;;28.48;14.40;;;-1.20;58.10;;;;;;5028872;28;20188;-67
2022/02/28 06:56:26;;;;;;;19.23;10.55;;;-0.90;58.00;;;;;;5028907;28;20222;-67
2022/02/28 06:58:53;;;;;;;18.23;10.60;;;-0.40;58.40;;;;;;5029399;28;20246;-68
2022/02/28 07:01:20;;;;;;;15.88;11.32;;;0.20;57.50;;;;;;5029309;28;20549;-67
2022/02/28 07:03:47;;;;;;;22.65;11.00;;;0.70;56.80;;;;;;5026049;28;20230;-68
2022/02/28 07:06:24;;;;;;;19.83;11.70;;;1.20;56.20;;;;;;5032901;28;20223;-68
2022/02/28 07:08:52;;;;;;;16.17;10.75;;;1.70;54.20;;;;;;5028036;28;20653;-67
2022/02/28 07:11:19;;;;;;;20.48;12.30;;;2.30;52.60;;;;;;5031988;28;20586;-69
2022/02/28 07:13:48;;;;;;;16.23;10.13;;;2.90;51.20;;;;;;5029452;28;20226;-69
2022/02/28 07:16:16;;;;;;;18.65;10.02;;;3.40;50.00;;;;;;5026155;28;20218;-71
2022/02/28 07:18:43;;;;;;;11.70;8.60;;;4.00;48.60;;;;;;5029810;28;20234;-68
2022/02/28 07:21:10;;;;;;;12.13;7.07;;;4.60;47.60;;;;;;5032970;28;20230;-68
2022/02/28 07:23:37;;;;;;;15.88;10.75;;;5.30;45.40;;;;;;5031486;28;20249;-69
2022/02/28 07:26:04;;;;;;;13.13;8.85;;;6.00;43.60;;;;;;5025859;28;20237;-68
2022/02/28 07:28:31;;;;;;;12.95;9.25;;;6.70;41.60;;;;;;5028133;28;20246;-68
2022/02/28 07:30:59;;;;;;;15.60;10.40;;;7.10;40.30;;;;;;5032554;28;20634;-68
2022/02/28 07:33:26;;;;;;;12.98;8.70;;;7.80;38.30;;;;;;5032534;28;20712;-68
2022/02/28 07:35:53;;;;;;;13.23;8.15;;;8.50;38.60;;;;;;5031808;28;20257;-69
2022/02/28 07:38:20;;;;;;;11.32;8.82;;;9.20;36.10;;;;;;5021718;28;20237;-70
2022/02/28 07:40:47;;;;;;;14.95;9.88;;;9.90;34.30;;;;;;5032390;28;20272;-69
2022/02/28 07:43:14;;;;;;;13.18;9.18;;;10.60;32.60;;;;;;5029308;28;20196;-69
2022/02/28 07:45:42;;;;;;;12.05;8.57;;;11.50;32.00;;;;;;5031699;28;20244;-75
2022/02/28 07:48:10;;;;;;;12.13;8.57;;;12.40;29.80;;;;;;5032771;28;20217;-69
2022/02/28 07:50:37;;;;;;;12.35;9.57;;;13.20;28.10;;;;;;5033214;28;20325;-69
2022/02/28 07:53:04;;;;;;;12.45;10.80;;;14.10;26.80;;;;;;5032244;28;20227;-69
2022/02/28 07:55:31;;;;;;;13.13;9.00;;;14.70;26.20;;;;;;5033063;28;20306;-68
2022/02/28 07:57:58;;;;;;;13.30;10.32;;;15.50;25.10;;;;;;5032382;28;20214;-69
2022/02/28 08:00:26;;;;;;;10.63;8.50;;;16.10;24.70;;;;;;5032686;28;20237;-70
2022/02/28 08:02:53;;;;;;;11.77;9.60;;;16.80;23.20;;;;;;5029215;28;20191;-68
2022/02/28 08:05:21;;;;;;;11.75;9.38;;;17.10;23.10;;;;;;5023659;28;20191;-69
2022/02/28 08:07:49;;;;;;;11.98;8.75;;;18.00;22.50;;;;;;5021550;28;20238;-70
2022/02/28 08:10:17;;;;;;;10.75;8.90;;;19.00;21.70;;;;;;5026324;28;20211;-69
2022/02/28 08:12:44;;;;;;;12.35;9.95;;;19.90;20.60;;;;;;5031818;28;20195;-69
2022/02/28 08:15:11;;;;;;;11.10;9.27;;;20.60;19.40;;;;;;5033174;28;20435;-69
2022/02/28 08:17:38;;;;;;;14.10;9.93;;;21.00;19.00;;;;;;5029082;28;20485;-75
2022/02/28 08:20:07;;;;;;;12.80;10.37;;;21.80;18.90;;;;;;5028258;28;20485;-69
2022/02/28 08:22:35;;;;;;;11.60;8.80;;;22.50;18.10;;;;;;5026918;28;20450;-66
2022/02/28 08:25:03;;;;;;;11.50;9.13;;;23.40;17.40;;;;;;5032433;28;20445;-66
2022/02/28 08:27:30;;;;;;;11.93;9.90;;;24.00;16.40;;;;;;5030072;28;20513;-70
2022/02/28 08:30:27;;;;;;;16.63;8.93;;;24.30;16.00;;;;;;5026920;28;20436;-67
2022/02/28 08:32:54;;;;;;;10.77;8.40;;;25.10;15.70;;;;;;5023520;28;20937;-70
2022/02/28 08:35:22;;;;;;;8.43;7.53;;;25.40;14.60;;;;;;5028152;28;20446;-70
2022/02/28 08:37:50;;;;;;;9.47;8.00;;;25.80;14.70;;;;;;5028869;28;20805;-68
2022/02/28 08:40:17;;;;;;;8.33;7.43;;;26.60;13.90;;;;;;5026453;28;20438;-70
2022/02/28 08:42:44;;;;;;;10.47;9.27;;;27.60;14.30;;;;;;5030756;28;20438;-69
2022/02/28 08:45:12;;;;;;;10.27;8.80;;;28.30;13.10;;;;;;5029408;28;20449;-67
2022/02/28 08:47:39;;;;;;;9.67;7.60;;;28.50;12.60;;;;;;5028638;28;20489;-69
2022/02/28 08:50:08;;;;;;;10.47;8.23;;;28.60;13.10;;;;;;5026021;28;20508;-68
2022/02/28 08:52:36;;;;;;;10.50;7.93;;;29.40;12.90;;;;;;5030220;28;20454;-66
2022/02/28 08:55:06;;;;;;;9.17;8.27;;;30.20;12.90;;;;;;5026504;28;20426;-67
2022/02/28 08:57:34;;;;;;;8.83;7.93;;;31.20;12.30;;;;;;5027925;28;20430;-68
2022/02/28 09:00:01;;;;;;;9.50;7.97;;;32.00;12.20;;;;;;5027232;28;20442;-67
2022/02/28 09:02:28;;;;;;;8.93;7.87;;;32.20;10.30;;;;;;5030267;28;20435;-67
2022/02/28 09:04:56;;;;;;;8.80;7.90;;;32.50;10.70;;;;;;5028325;28;20932;-69
2022/02/28 09:07:23;;;;;;;11.17;8.13;;;33.40;10.60;;;;;;5025910;28;20473;-67
2022/02/28 09:09:50;;;;;;;10.37;7.87;;;34.10;10.40;;;;;;5030014;28;20446;-68
2022/02/28 09:12:19;;;;;;;9.37;8.40;;;34.50;8.70;;;;;;5031125;28;21003;-67
2022/02/28 09:14:46;;;;;;;8.90;8.00;;;34.20;9.30;;;;;;5029626;28;20523;-70
2022/02/28 09:17:13;;;;;;;12.10;8.60;;;34.60;9.00;;;;;;5029571;28;20494;-67
2022/02/28 09:19:40;;;;;;;9.53;8.40;;;35.10;8.50;;;;;;5029710;28;20445;-67
2022/02/28 09:22:07;;;;;;;11.43;10.33;;;35.80;9.10;;;;;;5030759;28;20453;-67
2022/02/28 09:24:35;;;;;;;16.50;14.80;;;36.60;8.60;;;;;;5029130;28;20457;-68
2022/02/28 09:27:03;;;;;;;10.20;8.40;;;37.20;8.30;;;;;;5030558;28;20949;-68
2022/02/28 09:29:31;;;;;;;8.70;7.90;;;37.50;7.40;;;;;;5028561;28;20442;-69
2022/02/28 09:31:59;;;;;;;7.77;6.60;;;37.50;6.70;;;;;;5030809;28;20921;-69
2022/02/28 09:34:26;;;;;;;8.07;7.20;;;37.10;6.50;;;;;;5024275;28;20484;-68
2022/02/28 09:36:53;;;;;;;7.30;6.60;;;37.20;6.80;;;;;;5028193;28;20601;-68
2022/02/28 09:39:21;;;;;;;9.43;8.00;;;37.60;7.00;;;;;;5027437;28;20446;-68
2022/02/28 09:41:48;;;;;;;9.00;6.73;;;38.20;6.50;;;;;;5030805;28;20441;-68
2022/02/28 09:44:17;;;;;;;7.70;7.00;;;38.40;6.20;;;;;;5027455;28;20438;-78
2022/02/28 09:46:46;;;;;;;8.67;7.47;;;38.60;6.80;;;;;;5023357;28;20600;-68
2022/02/28 09:49:13;;;;;;;10.17;9.27;;;39.10;6.80;;;;;;5023765;28;20434;-68
2022/02/28 09:51:42;;;;;;;8.40;7.30;;;39.60;6.70;;;;;;5023320;28;20929;-67
2022/02/28 09:54:09;;;;;;;8.03;7.30;;;40.10;6.10;;;;;;5023268;28;20457;-68
2022/02/28 09:56:37;;;;;;;7.20;6.37;;;40.30;5.80;;;;;;5023604;28;20478;-68
2022/02/28 09:59:05;;;;;;;8.10;6.63;;;40.40;5.70;;;;;;5023078;28;20524;-69
2022/02/28 10:01:32;;;;;;;7.27;6.50;;;40.70;4.70;;;;;;5025250;28;20508;-68
2022/02/28 10:04:00;;;;;;;10.40;9.50;;;40.60;6.50;;;;;;5023697;28;20495;-69
2022/02/28 10:06:28;;;;;;;6.97;6.37;;;41.20;5.60;;;;;;5022805;28;20454;-67
2022/02/28 10:09:03;;;;;;;9.60;8.60;;;41.60;5.30;;;;;;5024382;28;20446;-68
2022/02/28 10:11:31;;;;;;;5.73;5.07;;;42.20;5.10;;;;;;5022602;28;20453;-76
2022/02/28 10:14:01;;;;;;;6.67;5.97;;;42.40;4.90;;;;;;5021869;28;20470;-68
2022/02/28 10:16:31;;;;;;;6.83;6.13;;;42.10;4.00;;;;;;5022235;28;20509;-68
2022/02/28 10:19:00;;;;;;;6.43;5.83;;;41.80;3.70;;;;;;5021728;28;21039;-67
2022/02/28 10:21:38;;;;;;;6.13;5.53;;;40.80;4.30;;;;;;5021708;28;20446;-67
2022/02/28 10:24:08;;;;;;;6.00;5.40;;;40.80;4.40;;;;;;5022332;28;20441;-67
2022/02/28 10:26:43;;;;;;;7.27;6.47;;;41.10;4.30;;;;;;5023864;28;20461;-67
2022/02/28 10:29:12;;;;;;;7.67;6.17;;;41.50;4.60;;;;;;5022659;28;20433;-67
2022/02/28 10:31:40;;;;;;;6.17;5.60;;;42.20;4.50;;;;;;5022306;28;20495;-70
2022/02/28 10:34:17;;;;;;;37.07;7.73;;;42.50;4.30;;;;;;5022914;28;20442;-68
2022/02/28 10:36:49;;;;;;;7.60;5.70;;;42.80;4.00;;;;;;5024529;28;20513;-68
2022/02/28 10:39:24;;;;;;;7.43;5.50;;;43.10;3.50;;;;;;5022787;28;20488;-67
2022/02/28 10:41:52;;;;;;;7.67;5.93;;;43.10;3.80;;;;;;5023625;28;20576;-70
2022/02/28 10:44:21;;;;;;;6.97;5.73;;;43.50;3.70;;;;;;5028492;28;20442;-70
2022/02/28 10:46:49;;;;;;;5.83;5.03;;;43.90;3.90;;;;;;5025100;28;20468;-67
2022/02/28 10:49:20;;;;;;;6.77;5.30;;;44.10;3.30;;;;;;5026205;28;20474;-68
2022/02/28 10:51:50;;;;;;;5.57;5.07;;;44.20;3.60;;;;;;5027605;28;20445;-68
2022/02/28 10:54:23;;;;;;;5.33;4.80;;;44.30;3.70;;;;;;5027794;28;20928;-67
2022/02/28 10:56:54;;;;;;;4.80;4.07;;;44.00;2.80;;;;;;5024171;28;20485;-67
2022/02/28 10:59:22;;;;;;;6.17;4.90;;;43.80;3.30;;;;;;5028088;28;20468;-68
2022/02/28 11:01:50;;;;;;;5.90;5.00;;;43.70;3.30;;;;;;5025931;28;20503;-68
2022/02/28 11:04:36;;;;;;;5.70;4.67;;;43.10;2.80;;;;;;5026080;28;20579;-67
2022/02/28 11:07:05;;;;;;;4.97;4.47;;;43.00;3.30;;;;;;5029563;28;20511;-69
2022/02/28 11:09:34;;;;;;;5.13;4.37;;;43.40;3.20;;;;;;5026916;28;20812;-67
2022/02/28 11:12:24;;;;;;;5.53;4.50;;;44.10;3.40;;;;;;5023102;28;20446;-68
2022/02/28 11:14:55;;;;;;;5.83;5.20;;;44.50;3.10;;;;;;5025280;28;20489;-68
2022/02/28 11:17:25;;;;;;;5.77;4.87;;;45.00;3.00;;;;;;5024046;28;20480;-74
2022/02/28 11:19:53;;;;;;;5.50;3.90;;;45.40;2.80;;;;;;5026112;28;20450;-68
2022/02/28 11:22:21;;;;;;;5.57;4.47;;;45.40;1.90;;;;;;5029175;28;20445;-68
2022/02/28 11:24:49;;;;;;;5.33;4.60;;;44.50;1.90;;;;;;5026570;28;20437;-68
2022/02/28 11:27:16;;;;;;;4.80;3.60;;;44.40;2.20;;;;;;5025137;28;20442;-68
2022/02/28 11:29:45;;;;;;;5.33;4.83;;;44.60;2.50;;;;;;5027324;28;20437;-68
2022/02/28 11:32:12;;;;;;;6.67;4.47;;;44.90;2.00;;;;;;5030224;28;20464;-68
2022/02/28 11:34:39;;;;;;;5.50;4.57;;;44.70;2.30;;;;;;5031946;28;20528;-68
2022/02/28 11:37:11;;;;;;;5.93;4.50;;;44.90;2.30;;;;;;5031873;28;20485;-68
2022/02/28 11:39:41;;;;;;;4.60;4.20;;;44.80;2.10;;;;;;5031548;28;20445;-68
2022/02/28 11:42:09;;;;;;;4.30;3.87;;;44.70;1.80;;;;;;5030666;28;20434;-68
2022/02/28 11:44:37;;;;;;;5.33;4.70;;;44.60;2.50;;;;;;5031853;28;20493;-68
2022/02/28 11:47:07;;;;;;;5.43;4.50;;;44.80;2.30;;;;;;5023835;28;20453;-69
2022/02/28 11:49:44;;;;;;;5.20;4.50;;;44.70;2.00;;;;;;5028669;28;20465;-69
2022/02/28 11:52:32;;;;;;;4.97;4.30;;;44.80;2.30;;;;;;5022433;28;20454;-68
2022/02/28 11:55:00;;;;;;;5.40;4.40;;;44.90;1.60;;;;;;5023904;28;20439;-68
2022/02/28 11:57:48;;;;;;;4.53;4.13;;;44.70;2.00;;;;;;5026473;28;20521;-68
2022/02/28 12:00:20;;;;;;;4.67;4.17;;;45.00;2.40;;;;;;5027594;28;20465;-68
2022/02/28 12:02:48;;;;;;;4.97;4.20;;;45.10;1.90;;;;;;5024601;28;20461;-68
2022/02/28 12:05:39;;;;;;;4.67;4.17;;;44.70;2.10;;;;;;5023101;28;20533;-69
2022/02/28 12:08:10;;;;;;;5.40;4.80;;;44.50;1.60;;;;;;5025027;28;20460;-69
2022/02/28 12:10:38;;;;;;;5.30;4.60;;;44.50;1.80;;;;;;5023761;28;20495;-69
2022/02/28 12:13:06;;;;;;;4.70;3.87;;;44.60;1.40;;;;;;5022410;28;20493;-68
2022/02/28 12:15:33;;;;;;;4.80;4.10;;;43.90;1.50;;;;;;5024136;28;20445;-68
2022/02/28 12:18:08;;;;;;;5.37;4.87;;;43.40;1.90;;;;;;5025442;28;20487;-68
2022/02/28 12:20:41;;;;;;;5.20;4.57;;;43.00;2.10;;;;;;5025114;28;20804;-68
2022/02/28 12:23:16;;;;;;;5.83;5.00;;;43.30;1.50;;;;;;5027220;28;20450;-68
2022/02/28 12:25:45;;;;;;;5.13;4.50;;;43.10;1.90;;;;;;5019092;28;20545;-67
2022/02/28 12:28:24;;;;;;;5.23;4.73;;;42.90;1.70;;;;;;5022371;28;20460;-68
2022/02/28 12:30:55;;;;;;;5.43;4.93;;;42.70;1.90;;;;;;5023291;28;20511;-68
2022/02/28 12:33:26;;;;;;;5.43;4.90;;;42.50;2.20;;;;;;5024755;28;20917;-68
2022/02/28 12:35:59;;;;;;;7.50;4.83;;;42.10;2.40;;;;;;5020054;28;20830;-67
2022/02/28 12:38:29;;;;;;;5.77;5.20;;;42.20;2.30;;;;;;5024153;28;20528;-68
2022/02/28 12:40:58;;;;;;;6.77;5.40;;;41.90;1.70;;;;;;5020456;28;20472;-68
2022/02/28 12:43:26;;;;;;;5.57;5.07;;;41.70;2.00;;;;;;5023800;28;20916;-68
2022/02/28 12:45:56;;;;;;;6.80;5.40;;;41.60;2.10;;;;;;5020595;28;20455;-67